Time;durP1;ratioP1;P1;durP2;ratioP2;P2;SDS_P1;SDS_P2;PMS_P1;PMS_P2;Temp;Humidity;BMP_temperature;BMP_pressure;BME280_temperature;BME280_humidity;BME280_pressure;Samples;Min_cycle;Max_cycle;Signal;HPM_P1;HPM_P2
2021/06/16 00:00:22;;;;;;;;;;;;;;;17.03;54.91;98366.84;1671346;84;20234;-86
2021/06/16 00:02:50;;;;;;;;;;;;;;;16.97;55.15;98371.89;1687695;84;21654;-86
2021/06/16 00:05:18;;;;;;;;;;;;;;;16.89;55.32;98375.29;1673916;85;21989;-85
2021/06/16 00:07:44;;;;;;;;;;;;;;;16.90;55.52;98376.95;1675339;84;26061;-85
2021/06/16 00:10:10;;;;;;;;;;;;;;;16.90;55.64;98371.67;1680836;83;20306;-85
2021/06/16 00:12:38;;;;;;;;;;;;;;;16.92;55.79;98371.02;1679656;83;21104;-86
2021/06/16 00:15:08;;;;;;;;;;;;;;;17.00;55.88;98375.08;1682018;84;24787;-86
2021/06/16 00:17:35;;;;;;;;;;;;;;;17.07;55.96;98377.97;1683618;83;22071;-85
2021/06/16 00:20:00;;;;;;;;;;;;;;;17.07;56.04;98373.48;1680302;84;26089;-86
2021/06/16 00:22:27;;;;;;;;;;;;;;;17.00;56.10;98380.38;1678257;84;20257;-86
2021/06/16 00:24:52;;;;;;;;;;;;;;;16.94;56.17;98374.36;1686399;84;20893;-86
2021/06/16 00:27:19;;;;;;;;;;;;;;;16.92;56.33;98368.86;1680523;82;20291;-86
2021/06/16 00:29:45;;;;;;;;;;;;;;;16.94;56.45;98368.23;1688398;83;22069;-86
2021/06/16 00:32:11;;;;;;;;;;;;;;;16.90;56.57;98367.70;1666866;85;26019;-86
2021/06/16 00:34:38;;;;;;;;;;;;;;;16.89;56.69;98364.72;1649762;86;24628;-87
2021/06/16 00:37:05;;;;;;;;;;;;;;;16.88;56.81;98363.05;1677203;85;20491;-87
2021/06/16 00:39:31;;;;;;;;;;;;;;;16.87;56.87;98363.19;1675284;84;25513;-87
2021/06/16 00:41:57;;;;;;;;;;;;;;;17.02;56.97;98363.84;1677186;84;21969;-87
2021/06/16 00:44:23;;;;;;;;;;;;;;;17.18;56.99;98367.66;1658065;85;27890;-87
2021/06/16 00:46:55;;;;;;;;;;;;;;;17.28;56.97;98360.48;1662870;84;25410;-87
2021/06/16 00:49:21;;;;;;;;;;;;;;;17.32;56.92;98364.00;1664259;85;20232;-87
2021/06/16 00:51:47;;;;;;;;;;;;;;;17.34;56.86;98363.86;1682345;84;20247;-87
2021/06/16 00:54:16;;;;;;;;;;;;;;;17.36;56.81;98363.20;1665146;84;21995;-87
2021/06/16 00:56:43;;;;;;;;;;;;;;;17.35;56.79;98357.56;1689639;84;26799;-87
2021/06/16 00:59:10;;;;;;;;;;;;;;;17.38;56.80;98355.95;1670713;84;24425;-87
2021/06/16 01:01:37;;;;;;;;;;;;;;;17.35;56.85;98357.56;1670852;84;20469;-87
2021/06/16 01:04:05;;;;;;;;;;;;;;;17.23;56.88;98360.11;1662880;85;24768;-87
2021/06/16 01:06:33;;;;;;;;;;;;;;;17.12;56.90;98356.71;1695857;84;22671;-87
2021/06/16 01:09:16;;;;;;;;;;;;;;;17.08;56.97;98359.29;1662128;85;25982;-87
2021/06/16 01:11:59;;;;;;;;;;;;;;;17.01;57.03;98356.92;1678441;85;24488;-87
2021/06/16 01:14:27;;;;;;;;;;;;;;;17.05;57.12;98354.31;1680556;84;20238;-88
2021/06/16 01:16:55;;;;;;;;;;;;;;;17.14;57.21;98349.44;1676040;84;24985;-87
2021/06/16 01:19:26;;;;;;;;;;;;;;;17.23;57.28;98344.24;1680044;84;22080;-87
2021/06/16 01:21:54;;;;;;;;;;;;;;;17.23;57.28;98346.89;1693926;84;26233;-87
2021/06/16 01:24:20;;;;;;;;;;;;;;;17.18;57.22;98348.67;1668398;84;24563;-87
2021/06/16 01:26:48;;;;;;;;;;;;;;;17.10;57.22;98352.05;1675055;85;20292;-87
2021/06/16 01:29:25;;;;;;;;;;;;;;;17.02;57.25;98344.54;1677194;85;24822;-87
2021/06/16 01:31:51;;;;;;;;;;;;;;;16.95;57.33;98347.43;1677210;84;22056;-88
2021/06/16 01:34:19;;;;;;;;;;;;;;;16.93;57.45;98346.25;1661061;85;26063;-88
2021/06/16 01:36:46;;;;;;;;;;;;;;;16.89;57.56;98348.86;1676739;85;25993;-88
2021/06/16 01:39:14;;;;;;;;;;;;;;;16.79;57.60;98348.09;1669365;84;20470;-88
2021/06/16 01:41:40;;;;;;;;;;;;;;;16.70;57.71;98344.98;1666943;85;24919;-87
2021/06/16 01:44:08;;;;;;;;;;;;;;;16.67;57.86;98337.37;1674668;84;22061;-88
2021/06/16 01:46:36;;;;;;;;;;;;;;;16.61;58.01;98341.92;1638406;86;26064;-88
2021/06/16 01:49:03;;;;;;;;;;;;;;;16.52;58.14;98341.45;1678826;84;24452;-87
2021/06/16 01:51:30;;;;;;;;;;;;;;;16.42;58.24;98343.31;1682145;84;20612;-88
2021/06/16 01:53:57;;;;;;;;;;;;;;;16.38;58.34;98335.31;1681091;84;24967;-88
2021/06/16 01:56:27;;;;;;;;;;;;;;;16.50;58.48;98334.16;1657617;85;20274;-87
2021/06/16 01:58:54;;;;;;;;;;;;;;;16.61;58.52;98344.56;1680757;85;26795;-88
2021/06/16 02:01:22;;;;;;;;;;;;;;;16.72;58.57;98349.16;1682566;84;24442;-88
2021/06/16 02:03:48;;;;;;;;;;;;;;;16.84;58.63;98345.83;1682552;84;20156;-88
2021/06/16 02:06:16;;;;;;;;;;;;;;;16.96;58.63;98341.16;1650237;85;20297;-88
2021/06/16 02:08:43;;;;;;;;;;;;;;;17.06;58.62;98345.41;1651530;86;22175;-87
2021/06/16 02:11:10;;;;;;;;;;;;;;;16.96;58.55;98344.64;1651370;86;26664;-88
2021/06/16 02:13:43;;;;;;;;;;;;;;;16.87;58.55;98346.84;1624214;87;24586;-88
2021/06/16 02:16:11;;;;;;;;;;;;;;;16.87;58.58;98345.52;1617177;88;20288;-88
2021/06/16 02:18:48;;;;;;;;;;;;;;;16.86;58.63;98344.34;1647307;86;25461;-87
2021/06/16 02:21:14;;;;;;;;;;;;;;;16.84;58.67;98351.12;1647734;85;22094;-87
2021/06/16 02:23:41;;;;;;;;;;;;;;;16.78;58.66;98351.70;1647205;86;26025;-87
2021/06/16 02:26:08;;;;;;;;;;;;;;;16.82;58.71;98354.39;1648648;85;24657;-87
2021/06/16 02:28:34;;;;;;;;;;;;;;;16.79;58.73;98346.77;1645063;85;20217;-87
2021/06/16 02:31:00;;;;;;;;;;;;;;;16.71;58.73;98348.81;1647405;85;24587;-87
2021/06/16 02:33:27;;;;;;;;;;;;;;;16.73;58.77;98345.55;1647462;85;20213;-87
2021/06/16 02:35:53;;;;;;;;;;;;;;;16.86;58.85;98348.30;1645647;86;26007;-87
2021/06/16 02:38:21;;;;;;;;;;;;;;;16.98;58.87;98349.27;1646015;85;24446;-87
2021/06/16 02:40:47;;;;;;;;;;;;;;;17.07;58.83;98346.24;1650781;85;20221;-87
2021/06/16 02:43:14;;;;;;;;;;;;;;;17.14;58.79;98347.28;1646704;86;25960;-88
2021/06/16 02:45:41;;;;;;;;;;;;;;;17.16;58.77;98346.66;1648755;85;22002;-87
2021/06/16 02:48:08;;;;;;;;;;;;;;;17.12;58.78;98347.45;1665852;84;25738;-87
2021/06/16 02:50:36;;;;;;;;;;;;;;;16.98;58.76;98349.77;1691860;85;24577;-87
2021/06/16 02:53:10;;;;;;;;;;;;;;;16.86;58.73;98348.30;1691669;84;20175;-87
2021/06/16 02:55:37;;;;;;;;;;;;;;;16.84;58.78;98352.92;1692289;83;26315;-88
2021/06/16 02:58:04;;;;;;;;;;;;;;;16.81;58.80;98352.72;1691414;85;21982;-88
2021/06/16 03:00:31;;;;;;;;;;;;;;;16.87;58.80;98360.05;1691470;83;25961;-88
2021/06/16 03:02:58;;;;;;;;;;;;;;;16.96;58.82;98353.90;1681782;84;24655;-88
2021/06/16 03:05:25;;;;;;;;;;;;;;;17.06;58.82;98361.76;1692417;83;20225;-88
2021/06/16 03:07:53;;;;;;;;;;;;;;;17.11;58.82;98351.56;1687941;84;24766;-88
2021/06/16 03:10:21;;;;;;;;;;;;;;;17.18;58.82;98359.73;1654393;85;22729;-87
2021/06/16 03:12:48;;;;;;;;;;;;;;;17.19;58.82;98356.91;1689454;84;26074;-87
2021/06/16 03:15:15;;;;;;;;;;;;;;;17.25;58.82;98350.19;1690251;83;25176;-87
2021/06/16 03:17:43;;;;;;;;;;;;;;;17.34;58.83;98355.43;1689098;83;20222;-87
2021/06/16 03:20:11;;;;;;;;;;;;;;;17.30;58.79;98358.02;1688303;83;24668;-88
2021/06/16 03:22:37;;;;;;;;;;;;;;;17.22;58.74;98358.44;1676608;85;22216;-87
2021/06/16 03:25:04;;;;;;;;;;;;;;;17.18;58.72;98363.21;1663815;84;26044;-87
2021/06/16 03:27:32;;;;;;;;;;;;;;;17.21;58.75;98362.06;1683475;84;24646;-87
2021/06/16 03:29:59;;;;;;;;;;;;;;;17.32;58.76;98369.78;1664462;85;20163;-87
2021/06/16 03:32:26;;;;;;;;;;;;;;;17.46;58.79;98371.39;1666022;84;24783;-87
2021/06/16 03:34:52;;;;;;;;;;;;;;;17.60;58.78;98379.33;1679729;84;21951;-87
2021/06/16 03:37:18;;;;;;;;;;;;;;;17.73;58.76;98379.75;1680369;84;26246;-87
2021/06/16 03:39:46;;;;;;;;;;;;;;;17.81;58.74;98379.83;1682751;84;24731;-87
2021/06/16 03:42:13;;;;;;;;;;;;;;;17.91;58.73;98381.05;1679350;83;20216;-87
2021/06/16 03:44:39;;;;;;;;;;;;;;;18.00;58.70;98375.34;1678896;85;24865;-87
2021/06/16 03:47:05;;;;;;;;;;;;;;;18.09;58.64;98363.81;1675280;83;20370;-87
2021/06/16 03:49:33;;;;;;;;;;;;;;;18.22;58.60;98370.33;1684853;85;26061;-87
2021/06/16 03:52:00;;;;;;;;;;;;;;;18.38;58.56;98365.64;1682989;83;24650;-87
2021/06/16 03:54:27;;;;;;;;;;;;;;;18.55;58.49;98366.55;1685422;85;20219;-88
2021/06/16 03:56:54;;;;;;;;;;;;;;;18.68;58.42;98369.12;1688052;83;24800;-87
2021/06/16 03:59:21;;;;;;;;;;;;;;;18.83;58.34;98369.33;1685155;83;22084;-86
2021/06/16 04:01:47;;;;;;;;;;;;;;;18.90;58.22;98373.01;1682513;84;25913;-86
2021/06/16 04:04:13;;;;;;;;;;;;;;;18.90;58.11;98369.03;1682491;84;24425;-86
2021/06/16 04:06:43;;;;;;;;;;;;;;;18.94;57.99;98370.36;1684477;85;20247;-86
2021/06/16 04:09:11;;;;;;;;;;;;;;;18.99;57.91;98373.84;1685079;84;25134;-86
2021/06/16 04:11:37;;;;;;;;;;;;;;;19.09;57.82;98382.00;1680540;85;22038;-86
2021/06/16 04:14:03;;;;;;;;;;;;;;;19.33;57.83;98381.23;1690442;82;25976;-87
2021/06/16 04:16:30;;;;;;;;;;;;;;;19.55;57.78;98375.81;1668596;84;24402;-86
2021/06/16 04:18:56;;;;;;;;;;;;;;;19.73;57.69;98380.97;1695463;83;20357;-85
2021/06/16 04:21:23;;;;;;;6.28;3.20;;;;;;;19.84;57.57;98388.61;1683511;84;24745;-86
2021/06/16 04:23:51;;;;;;;6.35;3.77;;;;;;;19.82;57.43;98395.41;1684869;84;28074;-86
2021/06/16 04:26:18;;;;;;;5.65;3.15;;;;;;;19.80;57.30;98398.71;1636714;85;28142;-89
2021/06/16 04:28:45;;;;;;;6.67;3.47;;;;;;;19.85;57.22;98396.42;1683352;83;28011;-87
2021/06/16 04:31:15;;;;;;;6.58;3.45;;;;;;;20.00;57.12;98401.39;1680808;83;28102;-86
2021/06/16 04:33:41;;;;;;;9.90;3.50;;;;;;;20.15;57.01;98402.02;1678097;83;28170;-86
2021/06/16 04:36:08;;;;;;;6.05;3.30;;;;;;;20.25;56.86;98405.33;1683016;83;28080;-86
2021/06/16 04:38:36;;;;;;;7.05;3.67;;;;;;;20.32;56.67;98407.68;1679647;84;27996;-86
2021/06/16 04:41:04;;;;;;;6.12;3.55;;;;;;;20.36;56.50;98408.98;1680239;84;28086;-86
2021/06/16 04:43:30;;;;;;;8.20;3.70;;;;;;;20.36;56.31;98407.66;1666529;82;28182;-86
2021/06/16 04:45:57;;;;;;;6.90;3.52;;;;;;;20.40;56.19;98400.50;1687190;84;28159;-86
2021/06/16 04:48:23;;;;;;;7.55;3.58;;;;;;;20.44;56.04;98406.33;1677598;83;28182;-86
2021/06/16 04:50:49;;;;;;;6.85;3.52;;;;;;;20.47;55.93;98395.34;1648975;84;28174;-86
2021/06/16 04:53:16;;;;;;;6.28;3.70;;;;;;;20.52;55.81;98394.82;1654653;84;28069;-87
2021/06/16 04:55:42;;;;;;;7.62;3.80;;;;;;;20.54;55.71;98394.16;1658259;84;28101;-87
2021/06/16 04:58:08;;;;;;;8.05;4.05;;;;;;;20.52;55.62;98394.33;1653557;84;28120;-87
2021/06/16 05:00:35;;;;;;;7.65;4.17;;;;;;;20.53;55.52;98388.52;1671831;85;28012;-87
2021/06/16 05:03:01;;;;;;;8.85;4.25;;;;;;;20.52;55.44;98395.66;1651680;85;28127;-88
2021/06/16 05:05:31;;;;;;;9.38;4.53;;;;;;;20.56;55.34;98398.33;1654975;84;28156;-87
2021/06/16 05:07:57;;;;;;;12.47;4.17;;;;;;;20.58;55.21;98397.64;1656044;84;28176;-88
2021/06/16 05:10:23;;;;;;;11.97;5.28;;;;;;;20.62;55.14;98394.16;1657260;84;28203;-87
2021/06/16 05:12:50;;;;;;;8.98;4.95;;;;;;;20.68;55.03;98397.43;1657163;84;28117;-88
2021/06/16 05:15:17;;;;;;;10.80;4.55;;;;;;;20.72;54.96;98396.94;1654254;84;28121;-88
2021/06/16 05:17:43;;;;;;;12.68;5.90;;;;;;;20.75;54.86;98398.41;1662802;84;28052;-88
2021/06/16 05:20:15;;;;;;;9.15;5.00;;;;;;;20.78;54.77;98404.73;1637036;84;28103;-88
2021/06/16 05:22:42;;;;;;;10.38;5.83;;;;;;;20.78;54.66;98400.75;1654160;84;28084;-88
2021/06/16 05:25:17;;;;;;;12.13;5.50;;;;;;;20.79;54.56;98403.20;1656580;84;28094;-88
2021/06/16 05:27:44;;;;;;;12.05;6.00;;;;;;;20.77;54.48;98406.56;1656321;84;28067;-88
2021/06/16 05:30:13;;;;;;;11.80;5.72;;;;;;;20.78;54.39;98402.08;1657577;84;28139;-87
2021/06/16 05:32:40;;;;;;;11.43;5.95;;;;;;;20.75;54.35;98406.39;1656373;84;28129;-88
2021/06/16 05:35:09;;;;;;;13.88;5.92;;;;;;;20.74;54.29;98403.39;1656632;84;28224;-88
2021/06/16 05:37:36;;;;;;;12.37;6.22;;;;;;;20.69;54.22;98407.08;1655505;84;28023;-88
2021/06/16 05:40:04;;;;;;;11.38;6.33;;;;;;;20.69;54.25;98403.91;1652766;84;28175;-88
2021/06/16 05:42:30;;;;;;;15.30;6.55;;;;;;;20.68;54.22;98405.41;1652069;84;28133;-87
2021/06/16 05:45:04;;;;;;;13.43;6.30;;;;;;;20.70;54.20;98406.08;1649745;84;28168;-86
2021/06/16 05:47:30;;;;;;;19.15;7.08;;;;;;;20.71;54.23;98400.59;1654540;84;28118;-86
2021/06/16 05:49:57;;;;;;;12.70;6.95;;;;;;;20.74;54.24;98411.38;1617773;85;28075;-87
2021/06/16 05:52:23;;;;;;;13.98;6.95;;;;;;;20.73;54.21;98408.41;1651762;84;28160;-86
2021/06/16 05:54:50;;;;;;;12.53;6.22;;;;;;;20.71;54.19;98417.88;1649410;84;28149;-86
2021/06/16 05:57:17;;;;;;;9.88;5.60;;;;;;;20.76;54.22;98410.22;1655026;84;28066;-87
2021/06/16 05:59:43;;;;;;;15.43;7.08;;;;;;;20.84;54.28;98413.33;1651549;84;28163;-87
2021/06/16 06:02:10;;;;;;;17.27;7.15;;;;;;;20.83;54.34;98417.02;1651449;84;28130;-87
2021/06/16 06:04:36;;;;;;;16.50;7.05;;;;;;;20.81;54.40;98420.34;1653573;84;27996;-88
2021/06/16 06:07:03;;;;;;;15.40;7.17;;;;;;;20.78;54.42;98418.03;1647157;84;28226;-87
2021/06/16 06:09:30;;;;;;;12.10;6.47;;;;;;;20.75;54.41;98409.88;1647683;84;28122;-87
2021/06/16 06:11:56;;;;;;;13.32;7.25;;;;;;;20.77;54.47;98419.03;1645830;84;28184;-87
2021/06/16 06:14:23;;;;;;;14.73;6.60;;;;;;;20.71;54.46;98415.22;1657028;84;28133;-87
2021/06/16 06:16:49;;;;;;;16.15;7.17;;;;;;;20.73;54.47;98419.05;1624673;86;27987;-87
2021/06/16 06:19:16;;;;;;;10.70;6.58;;;;;;;20.72;54.45;98412.06;1665491;84;28158;-88
2021/06/16 06:21:45;;;;;;;13.48;6.53;;;;;;;20.83;54.54;98413.02;1664729;84;28080;-88
2021/06/16 06:24:17;;;;;;;17.90;7.15;;;;;;;20.92;54.57;98415.14;1667058;85;28181;-88
2021/06/16 06:26:44;;;;;;;10.68;6.17;;;;;;;21.00;54.62;98409.80;1651656;84;28135;-88
2021/06/16 06:29:11;;;;;;;12.35;6.97;;;;;;;21.15;54.60;98410.24;1654016;84;28108;-88
2021/06/16 06:31:37;;;;;;;11.60;6.40;;;;;;;21.28;54.56;98414.48;1645704;84;28067;-88
2021/06/16 06:34:03;;;;;;;12.80;6.87;;;;;;;21.36;54.45;98408.29;1652310;84;28095;-88
2021/06/16 06:36:30;;;;;;;12.03;6.85;;;;;;;21.35;54.29;98403.97;1647308;84;28177;-88
2021/06/16 06:38:56;;;;;;;12.10;6.15;;;;;;;21.36;54.24;98410.13;1655516;84;28174;-88
2021/06/16 06:41:22;;;;;;;13.00;6.70;;;;;;;21.47;54.23;98408.39;1656495;84;28066;-88
2021/06/16 06:43:51;;;;;;;10.72;6.17;;;;;;;21.61;54.20;98412.44;1654491;84;28104;-88
2021/06/16 06:46:17;;;;;;;13.65;5.87;;;;;;;21.67;54.14;98405.08;1662444;84;28103;-88
2021/06/16 06:48:44;;;;;;;12.63;6.28;;;;;;;21.74;54.11;98405.20;1653853;84;28097;-88
2021/06/16 06:51:11;;;;;;;12.03;5.80;;;;;;;21.79;54.05;98404.16;1666491;84;28092;-88
2021/06/16 06:53:39;;;;;;;11.05;5.78;;;;;;;21.84;54.00;98411.11;1672857;83;28021;-88
2021/06/16 06:56:05;;;;;;;11.15;5.78;;;;;;;21.88;54.00;98414.23;1672182;84;28075;-87
2021/06/16 06:58:32;;;;;;;12.03;5.70;;;;;;;21.89;53.95;98410.56;1661327;84;28125;-88
2021/06/16 07:00:58;;;;;;;14.15;6.00;;;;;;;21.79;53.78;98411.31;1675021;83;28114;-87
2021/06/16 07:03:26;;;;;;;10.13;5.55;;;;;;;21.77;53.71;98406.66;1662017;84;28126;-87
2021/06/16 07:05:54;;;;;;;9.83;4.65;;;;;;;21.74;53.56;98407.03;1678664;83;28084;-88
2021/06/16 07:08:20;;;;;;;8.10;3.95;;;;;;;21.76;53.45;98411.19;1664784;83;28080;-88
2021/06/16 07:10:49;;;;;;;7.28;3.30;;;;;;;21.78;53.33;98407.82;1675534;83;28100;-88
2021/06/16 07:13:15;;;;;;;9.25;4.53;;;;;;;21.81;53.21;98409.31;1674940;83;28099;-88
2021/06/16 07:15:41;;;;;;;7.90;4.78;;;;;;;21.80;53.02;98407.66;1672995;83;28080;-88
2021/06/16 07:18:11;;;;;;;10.88;4.90;;;;;;;21.84;52.94;98405.78;1673721;83;28130;-87
2021/06/16 07:20:37;;;;;;;9.58;4.20;;;;;;;21.92;52.94;98413.72;1674120;83;28095;-88
2021/06/16 07:23:03;;;;;;;6.78;2.95;;;;;;;21.99;52.89;98409.84;1665276;83;28153;-88
2021/06/16 07:25:29;;;;;;;7.12;2.80;;;;;;;22.05;52.66;98407.80;1655972;83;28138;-88
2021/06/16 07:27:56;;;;;;;5.08;3.05;;;;;;;22.07;52.26;98417.28;1673823;83;28047;-88
2021/06/16 07:30:22;;;;;;;6.62;3.60;;;;;;;22.15;52.01;98409.69;1669781;83;28067;-88
2021/06/16 07:32:49;;;;;;;5.20;3.45;;;;;;;22.21;51.79;98411.64;1629676;86;28067;-88
2021/06/16 07:35:16;;;;;;;6.47;3.80;;;;;;;22.24;51.54;98413.13;1631828;85;28066;-88
2021/06/16 07:37:43;;;;;;;7.12;3.40;;;;;;;22.31;51.36;98416.73;1638992;85;28152;-88
2021/06/16 07:40:10;;;;;;;7.37;3.70;;;;;;;22.43;51.37;98413.92;1636426;85;28132;-88
2021/06/16 07:42:39;;;;;;;6.62;3.47;;;;;;;22.51;51.22;98420.02;1637001;85;28115;-88
2021/06/16 07:45:07;;;;;;;6.40;3.58;;;;;;;22.59;51.00;98419.59;1675437;83;28111;-88
2021/06/16 07:47:34;;;;;;;6.83;3.50;;;;;;;22.66;50.87;98417.34;1674951;83;28169;-87
2021/06/16 07:50:00;;;;;;;;;;;;;;;22.72;50.67;98415.31;1673293;83;28125;-88
2021/06/16 07:52:27;;;;;;;;;;;;;;;22.77;50.39;98418.75;1649803;84;20496;-87
2021/06/16 07:54:54;;;;;;;;;;;;;;;22.85;50.32;98424.84;1671267;84;26011;-88
2021/06/16 07:57:21;;;;;;;10.90;4.42;;;;;;;22.90;50.20;98418.94;1659968;85;24443;-87
2021/06/16 07:59:47;;;;;;;7.25;3.58;;;;;;;22.98;50.15;98424.67;1664931;85;28189;-88
2021/06/16 08:02:13;;;;;;;7.55;4.40;;;;;;;23.04;49.99;98417.25;1668367;84;28165;-88
2021/06/16 08:04:41;;;;;;;8.88;4.25;;;;;;;23.12;49.91;98426.01;1660142;85;28125;-88
2021/06/16 08:07:11;;;;;;;7.33;3.95;;;;;;;23.19;49.69;98423.39;1663099;85;28075;-87
2021/06/16 08:09:42;;;;;;;12.58;4.90;;;;;;;23.24;49.51;98420.98;1662105;85;28076;-88
2021/06/16 08:12:10;;;;;;;5.30;3.72;;;;;;;23.31;49.35;98418.72;1667423;85;28083;-88
2021/06/16 08:14:37;;;;;;;6.97;4.10;;;;;;;23.39;49.18;98425.80;1658940;84;28157;-87
2021/06/16 08:17:05;;;;;;;6.53;3.25;;;;;;;23.47;49.02;98425.70;1668192;85;28096;-87
2021/06/16 08:19:34;;;;;;;9.45;3.87;;;;;;;23.57;48.86;98430.73;1663505;84;28087;-88
2021/06/16 08:22:01;;;;;;;4.97;3.40;;;;;;;23.65;48.65;98438.14;1662427;85;28223;-88
2021/06/16 08:24:28;;;;;;;7.85;3.35;;;;;;;23.72;48.38;98436.88;1653928;84;28148;-88
2021/06/16 08:26:54;;;;;;;7.78;3.50;;;;;;;23.80;48.24;98437.24;1664470;85;28197;-88
2021/06/16 08:29:20;;;;;;;9.00;4.40;;;;;;;23.80;47.93;98438.08;1666257;85;28158;-88
2021/06/16 08:31:47;;;;;;;10.35;3.85;;;;;;;23.86;47.85;98435.98;1668699;85;28044;-88
2021/06/16 08:34:13;;;;;;;7.35;3.58;;;;;;;23.95;47.80;98432.14;1659379;85;28092;-88
2021/06/16 08:36:41;;;;;;;6.90;3.90;;;;;;;24.05;47.81;98431.84;1684734;83;28108;-88
2021/06/16 08:39:14;;;;;;;7.72;3.75;;;;;;;24.13;47.68;98442.38;1660243;85;28205;-88
2021/06/16 08:41:41;;;;;;;6.40;3.25;;;;;;;24.21;47.56;98441.47;1645330;86;28180;-88
2021/06/16 08:44:12;;;;;;;6.72;3.30;;;;;;;24.25;47.34;98436.03;1688549;83;28106;-88
2021/06/16 08:46:39;;;;;;;5.97;3.58;;;;;;;24.31;47.22;98436.09;1684157;83;28174;-88
2021/06/16 08:49:06;;;;;;;4.17;3.15;;;;;;;24.37;47.04;98442.52;1686381;83;28065;-88
2021/06/16 08:51:37;;;;;;;5.00;3.22;;;;;;;24.41;46.83;98441.92;1667720;83;28112;-88
2021/06/16 08:54:05;;;;;;;3.42;2.70;;;;;;;24.40;46.49;98440.27;1670064;83;28077;-88
2021/06/16 08:56:32;;;;;;;7.20;3.27;;;;;;;24.45;46.20;98438.34;1663429;83;28078;-88
2021/06/16 08:58:59;;;;;;;7.03;3.55;;;;;;;24.49;45.96;98443.64;1670682;83;28134;-88
2021/06/16 09:01:25;;;;;;;5.42;3.35;;;;;;;24.54;45.91;98443.88;1661353;83;28068;-87
2021/06/16 09:03:52;;;;;;;6.97;3.17;;;;;;;24.60;45.83;98436.41;1674070;83;28069;-88
2021/06/16 09:06:18;;;;;;;4.78;2.95;;;;;;;24.67;45.70;98444.45;1659348;83;28094;-88
2021/06/16 09:09:05;;;;;;;4.80;2.80;;;;;;;24.73;45.55;98443.67;1674508;83;28036;-88
2021/06/16 09:11:35;;;;;;;4.10;2.60;;;;;;;24.78;45.25;98438.56;1667316;83;28109;-88
2021/06/16 09:14:17;;;;;;;5.20;2.50;;;;;;;24.78;44.92;98438.56;1660670;84;28095;-88
2021/06/16 09:16:45;;;;;;;3.05;2.33;;;;;;;24.80;44.75;98440.53;1614160;87;28081;-88
2021/06/16 09:19:23;;;;;;;3.12;2.42;;;;;;;24.87;44.57;98437.39;1624626;86;28204;-88
2021/06/16 09:22:06;;;;;;;6.50;3.10;;;;;;;24.95;44.59;98439.92;1670371;83;28104;-88
2021/06/16 09:24:45;;;;;;;3.37;2.58;;;;;;;24.97;44.34;98434.70;1669384;84;28091;-88
2021/06/16 09:27:17;;;;;;;4.90;3.10;;;;;;;24.98;44.18;98434.19;1673560;84;28142;-88
2021/06/16 09:29:47;;;;;;;3.83;2.50;;;;;;;25.00;44.05;98438.81;1641196;84;28115;-88
2021/06/16 09:32:13;;;;;;;4.40;2.85;;;;;;;25.00;43.90;98434.80;1665331;85;28135;-89
2021/06/16 09:34:39;;;;;;;4.30;2.50;;;;;;;25.00;43.87;98429.44;1660414;85;28116;-88
2021/06/16 09:37:06;;;;;;;4.53;2.60;;;;;;;25.05;43.83;98432.34;1672719;84;28164;-88
2021/06/16 09:39:33;;;;;;;5.15;3.10;;;;;;;25.12;43.74;98436.40;1665964;84;28053;-88
2021/06/16 09:42:14;;;;;;;5.47;3.02;;;;;;;25.12;43.53;98437.23;1669295;83;28042;-88
2021/06/16 09:44:46;;;;;;;4.72;2.87;;;;;;;25.06;43.37;98432.67;1664263;83;28099;-87
2021/06/16 09:47:15;;;;;;;4.47;3.08;;;;;;;25.09;43.30;98431.45;1671110;83;28130;-87
2021/06/16 09:49:57;;;;;;;5.60;3.20;;;;;;;25.15;43.29;98435.48;1664783;84;28164;-87
2021/06/16 09:52:28;;;;;;;5.22;3.30;;;;;;;25.16;43.23;98430.44;1665353;84;28489;-88
2021/06/16 09:55:22;;;;;;;6.22;3.42;;;;;;;25.19;43.23;98431.40;1663612;84;28087;-87
2021/06/16 09:58:10;;;;;;;6.67;3.50;;;;;;;25.18;43.14;98427.06;1664230;84;27997;-88
2021/06/16 10:00:46;;;;;;;5.15;2.90;;;;;;;25.20;43.10;98424.19;1665552;83;28088;-88
2021/06/16 10:03:18;;;;;;;6.10;3.60;;;;;;;25.25;43.11;98425.24;1672178;84;28083;-88
2021/06/16 10:06:08;;;;;;;8.40;3.27;;;;;;;25.29;43.13;98423.80;1667306;85;28078;-87
2021/06/16 10:08:46;;;;;;;6.22;3.47;;;;;;;25.37;43.10;98419.59;1677152;83;28061;-87
2021/06/16 10:11:19;;;;;;;6.60;3.35;;;;;;;25.38;43.11;98419.08;1670646;83;28135;-87
2021/06/16 10:13:47;;;;;;;7.22;3.55;;;;;;;25.46;43.19;98422.94;1653700;85;28183;-87
2021/06/16 10:16:14;;;;;;;5.55;3.20;;;;;;;25.56;43.25;98427.93;1611165;87;28077;-87
2021/06/16 10:18:47;;;;;;;7.70;3.17;;;;;;;25.59;43.13;98422.15;1616901;87;28149;-87
2021/06/16 10:21:15;;;;;;;6.35;3.02;;;;;;;25.62;43.04;98421.77;1667517;84;28430;-88
2021/06/16 10:23:42;;;;;;;3.92;2.87;;;;;;;25.69;43.13;98422.61;1613540;86;28136;-88
2021/06/16 10:26:18;;;;;;;6.90;3.45;;;;;;;25.75;43.09;98430.64;1625793;86;28013;-88
2021/06/16 10:28:49;;;;;;;4.15;2.72;;;;;;;25.82;43.07;98428.80;1643674;85;28169;-88
2021/06/16 10:31:17;;;;;;;5.30;3.33;;;;;;;25.87;42.97;98436.23;1666683;84;28198;-88
2021/06/16 10:34:04;;;;;;;5.65;2.80;;;;;;;25.85;42.79;98434.80;1672034;84;28062;-88
2021/06/16 10:36:36;;;;;;;4.30;2.92;;;;;;;25.82;42.62;98435.51;1664395;84;28099;-87
2021/06/16 10:39:07;;;;;;;4.78;2.95;;;;;;;25.77;42.40;98436.64;1672921;85;28087;-88
2021/06/16 10:41:51;;;;;;;4.85;2.60;;;;;;;25.71;42.19;98433.94;1670164;84;28076;-88
2021/06/16 10:44:30;;;;;;;4.83;3.17;;;;;;;25.67;42.14;98432.19;1663841;85;28118;-88
2021/06/16 10:47:08;;;;;;;3.77;2.85;;;;;;;25.64;41.96;98430.44;1669032;84;28092;-88
2021/06/16 10:49:50;;;;;;;3.70;2.52;;;;;;;25.65;41.96;98434.23;1668683;85;28016;-89
2021/06/16 10:52:21;;;;;;;7.80;2.90;;;;;;;25.69;41.85;98431.45;1661314;84;27994;-89
2021/06/16 10:54:57;;;;;;;3.75;2.33;;;;;;;25.65;41.61;98428.88;1685529;84;28076;-88
2021/06/16 10:57:23;;;;;;;3.62;2.58;;;;;;;25.67;41.68;98426.83;1689286;83;28057;-88
2021/06/16 11:00:04;;;;;;;4.25;2.20;;;;;;;25.68;41.55;98426.31;1681708;82;28094;-88
2021/06/16 11:02:34;;;;;;;5.15;3.20;;;;;;;25.73;41.59;98426.53;1685472;83;28186;-88
2021/06/16 11:05:28;;;;;;;6.90;3.63;;;;;;;25.78;41.48;98425.41;1685261;84;28166;-88
2021/06/16 11:08:04;;;;;;;4.65;2.65;;;;;;;25.86;41.63;98421.16;1689120;84;28110;-90
2021/06/16 11:10:53;;;;;;;4.12;2.37;;;;;;;25.88;41.55;98420.97;1651616;85;28222;-89
2021/06/16 11:13:41;;;;;;;5.03;2.87;;;;;;;25.89;41.54;98418.09;1689541;82;28085;-89
2021/06/16 11:16:40;;;;;;;3.08;2.50;;;;;;;25.92;41.51;98423.03;1683886;82;28196;-89
2021/06/16 11:19:23;;;;;;;5.55;2.92;;;;;;;25.87;41.23;98416.13;1680704;83;28017;-89
2021/06/16 11:21:53;;;;;;;4.45;2.70;;;;;;;25.92;41.37;98419.52;1687243;83;28112;-90
2021/06/16 11:24:20;;;;;;;3.83;2.35;;;;;;;26.00;41.40;98410.78;1678048;84;28089;-89
2021/06/16 11:26:48;;;;;;;3.98;2.58;;;;;;;26.02;41.33;98411.92;1687512;83;28116;-89
2021/06/16 11:29:53;;;;;;;4.72;2.33;;;;;;;25.97;41.16;98411.17;1665054;85;28216;-90
2021/06/16 11:32:28;;;;;;;5.70;2.65;;;;;;;25.96;41.20;98404.19;1666460;83;28202;-89
2021/06/16 11:34:56;;;;;;;3.98;2.42;;;;;;;26.00;41.14;98402.73;1672023;83;28065;-88
2021/06/16 11:38:00;;;;;;;5.37;3.05;;;;;;;26.07;41.21;98396.03;1680969;82;28097;-88
2021/06/16 11:40:28;;;;;;;4.90;2.58;;;;;;;26.06;41.17;98401.91;1674846;84;28183;-89
2021/06/16 11:42:54;;;;;;;4.78;2.60;;;;;;;26.07;41.02;98397.38;1679601;84;28084;-88
2021/06/16 11:45:20;;;;;;;3.50;2.65;;;;;;;26.11;41.03;98394.06;1690867;83;28207;-88
2021/06/16 11:47:54;;;;;;;4.72;2.40;;;;;;;26.18;40.98;98398.09;1684750;84;28007;-89
2021/06/16 11:50:36;;;;;;;5.55;2.42;;;;;;;26.16;40.75;98398.30;1687011;82;28184;-89
2021/06/16 11:53:05;;;;;;;3.05;2.15;;;;;;;26.16;40.65;98400.98;1680780;83;28141;-89
2021/06/16 11:55:47;;;;;;;4.58;2.45;;;;;;;26.15;40.43;98396.64;1678395;84;28161;-90
2021/06/16 11:58:22;;;;;;;;;;;;;;;26.15;40.37;98396.64;1687912;83;28006;-90
2021/06/16 12:00:53;;;;;;;2.87;2.40;;;;;;;26.17;40.33;98397.27;1652693;85;24539;-89
2021/06/16 12:03:20;;;;;;;5.33;2.67;;;;;;;26.21;40.24;98388.27;1681114;83;28100;-89
2021/06/16 12:05:50;;;;;;;3.35;2.30;;;;;;;26.29;40.28;98393.99;1684086;83;28117;-90
2021/06/16 12:08:22;;;;;;;2.65;2.20;;;;;;;26.35;40.28;98389.94;1685017;84;28083;-90